METAR Data
IDs: Format: Raw Decoded Include TAF

Data at: 1350 UTC 26 Feb 2021

METAR for:K4BM (Wilkerson Pass, CO, US)
Text:K4BM 261335Z AUTO 22006KT 10SM CLR M12/M18 A2976 RMK AO2
Temperature:-12.0°C ( 10°F)
Dewpoint:-18.0°C ( -0°F) [RH = 61%]
Pressure (altimeter):29.76 inches Hg (1007.9 mb)
Winds:from the SW (220 degrees) at 7 MPH (6 knots; 3.1 m/s)
Visibility:10 or more sm (16+ km)
Ceiling:at least 12,000 feet AGL
Clouds:sky clear below 12,000 feet AGL
QC Flag:automated observation with no human augmentation